sensor_id;sensor_type;location;lat;lon;timestamp;P1;durP1;ratioP1;P2;durP2;ratioP2
23072;SDS011;67971;51.046;3.732;2023-04-19T00:01:49;32.57;;;24.33;;
23072;SDS011;67971;51.046;3.732;2023-04-19T00:04:14;31.00;;;24.13;;
23072;SDS011;67971;51.046;3.732;2023-04-19T00:06:40;31.53;;;26.23;;
23072;SDS011;67971;51.046;3.732;2023-04-19T00:09:06;30.87;;;24.33;;
23072;SDS011;67971;51.046;3.732;2023-04-19T00:11:32;32.20;;;24.57;;
23072;SDS011;67971;51.046;3.732;2023-04-19T00:13:58;30.00;;;24.00;;
23072;SDS011;67971;51.046;3.732;2023-04-19T00:16:24;33.33;;;25.37;;
23072;SDS011;67971;51.046;3.732;2023-04-19T00:18:49;34.23;;;24.97;;
23072;SDS011;67971;51.046;3.732;2023-04-19T00:21:15;33.93;;;25.53;;
23072;SDS011;67971;51.046;3.732;2023-04-19T00:23:41;31.67;;;23.47;;
23072;SDS011;67971;51.046;3.732;2023-04-19T00:26:07;34.57;;;25.47;;
23072;SDS011;67971;51.046;3.732;2023-04-19T00:28:33;32.13;;;23.40;;
23072;SDS011;67971;51.046;3.732;2023-04-19T00:30:59;31.87;;;24.40;;
23072;SDS011;67971;51.046;3.732;2023-04-19T00:33:24;32.27;;;24.80;;
23072;SDS011;67971;51.046;3.732;2023-04-19T00:35:50;31.47;;;24.53;;
23072;SDS011;67971;51.046;3.732;2023-04-19T00:38:16;31.63;;;24.97;;
23072;SDS011;67971;51.046;3.732;2023-04-19T00:40:41;30.13;;;23.63;;
23072;SDS011;67971;51.046;3.732;2023-04-19T00:43:07;37.03;;;25.43;;
23072;SDS011;67971;51.046;3.732;2023-04-19T00:45:33;32.23;;;25.60;;
23072;SDS011;67971;51.046;3.732;2023-04-19T00:48:00;29.20;;;23.90;;
23072;SDS011;67971;51.046;3.732;2023-04-19T00:50:26;32.70;;;24.00;;
23072;SDS011;67971;51.046;3.732;2023-04-19T00:52:52;31.37;;;25.20;;
23072;SDS011;67971;51.046;3.732;2023-04-19T00:55:19;31.90;;;24.03;;
23072;SDS011;67971;51.046;3.732;2023-04-19T00:57:46;31.57;;;22.63;;
23072;SDS011;67971;51.046;3.732;2023-04-19T01:00:12;34.73;;;24.07;;
23072;SDS011;67971;51.046;3.732;2023-04-19T01:02:39;32.47;;;24.53;;
23072;SDS011;67971;51.046;3.732;2023-04-19T01:05:05;31.80;;;24.63;;
23072;SDS011;67971;51.046;3.732;2023-04-19T01:07:32;32.77;;;25.20;;
23072;SDS011;67971;51.046;3.732;2023-04-19T01:09:58;34.63;;;23.97;;
23072;SDS011;67971;51.046;3.732;2023-04-19T01:12:24;33.10;;;24.70;;
23072;SDS011;67971;51.046;3.732;2023-04-19T01:14:50;32.43;;;23.87;;
23072;SDS011;67971;51.046;3.732;2023-04-19T01:17:16;29.70;;;23.53;;
23072;SDS011;67971;51.046;3.732;2023-04-19T01:19:43;36.33;;;24.70;;
23072;SDS011;67971;51.046;3.732;2023-04-19T01:22:08;34.03;;;24.77;;
23072;SDS011;67971;51.046;3.732;2023-04-19T01:24:34;35.77;;;25.67;;
23072;SDS011;67971;51.046;3.732;2023-04-19T01:27:00;32.73;;;25.13;;
23072;SDS011;67971;51.046;3.732;2023-04-19T01:29:26;36.47;;;27.00;;
23072;SDS011;67971;51.046;3.732;2023-04-19T01:31:52;36.00;;;26.37;;
23072;SDS011;67971;51.046;3.732;2023-04-19T01:34:18;37.03;;;24.80;;
23072;SDS011;67971;51.046;3.732;2023-04-19T01:36:44;35.87;;;26.73;;
23072;SDS011;67971;51.046;3.732;2023-04-19T01:39:10;35.13;;;25.90;;
23072;SDS011;67971;51.046;3.732;2023-04-19T01:41:36;35.00;;;26.47;;
23072;SDS011;67971;51.046;3.732;2023-04-19T01:44:01;34.50;;;25.27;;
23072;SDS011;67971;51.046;3.732;2023-04-19T01:46:27;35.40;;;26.13;;
23072;SDS011;67971;51.046;3.732;2023-04-19T01:48:53;36.63;;;27.00;;
23072;SDS011;67971;51.046;3.732;2023-04-19T01:51:19;35.83;;;25.47;;
23072;SDS011;67971;51.046;3.732;2023-04-19T01:53:46;34.13;;;25.70;;
23072;SDS011;67971;51.046;3.732;2023-04-19T01:56:16;31.93;;;24.73;;
23072;SDS011;67971;51.046;3.732;2023-04-19T01:58:42;34.00;;;26.53;;
23072;SDS011;67971;51.046;3.732;2023-04-19T02:01:07;33.63;;;26.07;;
23072;SDS011;67971;51.046;3.732;2023-04-19T02:03:36;38.23;;;26.70;;
23072;SDS011;67971;51.046;3.732;2023-04-19T02:06:02;38.47;;;27.33;;
23072;SDS011;67971;51.046;3.732;2023-04-19T02:08:28;33.00;;;25.17;;
23072;SDS011;67971;51.046;3.732;2023-04-19T02:10:54;36.87;;;26.63;;
23072;SDS011;67971;51.046;3.732;2023-04-19T02:13:20;34.63;;;26.00;;
23072;SDS011;67971;51.046;3.732;2023-04-19T02:15:45;35.53;;;26.10;;
23072;SDS011;67971;51.046;3.732;2023-04-19T02:18:11;33.00;;;25.97;;
23072;SDS011;67971;51.046;3.732;2023-04-19T02:20:37;32.83;;;26.23;;
23072;SDS011;67971;51.046;3.732;2023-04-19T02:23:03;35.50;;;26.63;;
23072;SDS011;67971;51.046;3.732;2023-04-19T02:25:29;37.70;;;26.67;;
23072;SDS011;67971;51.046;3.732;2023-04-19T02:27:55;33.87;;;26.13;;
23072;SDS011;67971;51.046;3.732;2023-04-19T02:30:20;36.23;;;26.73;;
23072;SDS011;67971;51.046;3.732;2023-04-19T02:32:47;37.03;;;26.47;;
23072;SDS011;67971;51.046;3.732;2023-04-19T02:35:13;39.73;;;27.20;;
23072;SDS011;67971;51.046;3.732;2023-04-19T02:37:39;37.23;;;28.17;;
23072;SDS011;67971;51.046;3.732;2023-04-19T02:40:05;40.53;;;27.20;;
23072;SDS011;67971;51.046;3.732;2023-04-19T02:42:31;35.93;;;26.87;;
23072;SDS011;67971;51.046;3.732;2023-04-19T02:44:57;40.37;;;27.50;;
23072;SDS011;67971;51.046;3.732;2023-04-19T02:47:23;36.70;;;28.73;;
23072;SDS011;67971;51.046;3.732;2023-04-19T02:49:48;38.70;;;27.70;;
23072;SDS011;67971;51.046;3.732;2023-04-19T02:52:14;34.67;;;26.13;;
23072;SDS011;67971;51.046;3.732;2023-04-19T02:54:40;37.83;;;28.40;;
23072;SDS011;67971;51.046;3.732;2023-04-19T02:57:05;38.03;;;28.17;;
23072;SDS011;67971;51.046;3.732;2023-04-19T02:59:31;45.10;;;27.30;;
23072;SDS011;67971;51.046;3.732;2023-04-19T03:01:56;39.00;;;28.53;;
23072;SDS011;67971;51.046;3.732;2023-04-19T03:04:22;38.57;;;28.17;;
23072;SDS011;67971;51.046;3.732;2023-04-19T03:06:48;37.83;;;28.63;;
23072;SDS011;67971;51.046;3.732;2023-04-19T03:09:13;36.73;;;27.10;;
23072;SDS011;67971;51.046;3.732;2023-04-19T03:11:39;38.77;;;27.93;;
23072;SDS011;67971;51.046;3.732;2023-04-19T03:14:05;38.17;;;28.77;;
23072;SDS011;67971;51.046;3.732;2023-04-19T03:16:30;41.07;;;29.10;;
23072;SDS011;67971;51.046;3.732;2023-04-19T03:18:56;40.43;;;29.03;;
23072;SDS011;67971;51.046;3.732;2023-04-19T03:21:22;37.63;;;27.77;;
23072;SDS011;67971;51.046;3.732;2023-04-19T03:23:51;36.80;;;28.37;;
23072;SDS011;67971;51.046;3.732;2023-04-19T03:26:17;39.00;;;28.57;;
23072;SDS011;67971;51.046;3.732;2023-04-19T03:28:43;39.60;;;27.77;;
23072;SDS011;67971;51.046;3.732;2023-04-19T03:31:08;41.93;;;29.13;;
23072;SDS011;67971;51.046;3.732;2023-04-19T03:33:34;39.13;;;27.83;;
23072;SDS011;67971;51.046;3.732;2023-04-19T03:36:00;41.77;;;28.07;;
23072;SDS011;67971;51.046;3.732;2023-04-19T03:38:25;38.57;;;26.40;;
23072;SDS011;67971;51.046;3.732;2023-04-19T03:40:51;39.37;;;28.57;;
23072;SDS011;67971;51.046;3.732;2023-04-19T03:43:17;37.93;;;27.80;;
23072;SDS011;67971;51.046;3.732;2023-04-19T03:45:42;34.20;;;27.63;;
23072;SDS011;67971;51.046;3.732;2023-04-19T03:48:08;37.70;;;28.23;;
23072;SDS011;67971;51.046;3.732;2023-04-19T03:50:34;40.23;;;27.83;;
23072;SDS011;67971;51.046;3.732;2023-04-19T03:52:59;34.77;;;26.40;;
23072;SDS011;67971;51.046;3.732;2023-04-19T03:55:27;36.10;;;27.13;;
23072;SDS011;67971;51.046;3.732;2023-04-19T03:57:52;38.83;;;27.97;;
23072;SDS011;67971;51.046;3.732;2023-04-19T04:00:18;35.63;;;26.67;;
23072;SDS011;67971;51.046;3.732;2023-04-19T04:02:44;37.77;;;27.47;;
23072;SDS011;67971;51.046;3.732;2023-04-19T04:05:10;36.60;;;27.90;;
23072;SDS011;67971;51.046;3.732;2023-04-19T04:07:35;37.27;;;26.93;;
23072;SDS011;67971;51.046;3.732;2023-04-19T04:10:01;36.93;;;27.33;;
23072;SDS011;67971;51.046;3.732;2023-04-19T04:12:27;38.03;;;27.23;;
23072;SDS011;67971;51.046;3.732;2023-04-19T04:14:52;35.00;;;27.10;;
23072;SDS011;67971;51.046;3.732;2023-04-19T04:17:18;41.23;;;28.63;;
23072;SDS011;67971;51.046;3.732;2023-04-19T04:19:44;37.50;;;27.33;;
23072;SDS011;67971;51.046;3.732;2023-04-19T04:22:09;36.93;;;27.67;;
23072;SDS011;67971;51.046;3.732;2023-04-19T04:24:38;38.17;;;27.07;;
23072;SDS011;67971;51.046;3.732;2023-04-19T04:27:06;36.67;;;28.37;;
23072;SDS011;67971;51.046;3.732;2023-04-19T04:29:34;41.97;;;27.17;;
23072;SDS011;67971;51.046;3.732;2023-04-19T04:32:06;36.63;;;26.27;;
23072;SDS011;67971;51.046;3.732;2023-04-19T04:34:34;38.10;;;28.37;;
23072;SDS011;67971;51.046;3.732;2023-04-19T04:37:01;35.17;;;26.17;;
23072;SDS011;67971;51.046;3.732;2023-04-19T04:39:28;33.73;;;26.63;;
23072;SDS011;67971;51.046;3.732;2023-04-19T04:41:54;37.90;;;26.90;;
23072;SDS011;67971;51.046;3.732;2023-04-19T04:44:21;40.30;;;27.40;;
23072;SDS011;67971;51.046;3.732;2023-04-19T04:46:48;41.10;;;27.47;;
23072;SDS011;67971;51.046;3.732;2023-04-19T04:49:13;40.07;;;27.53;;
23072;SDS011;67971;51.046;3.732;2023-04-19T04:51:39;36.30;;;26.97;;
23072;SDS011;67971;51.046;3.732;2023-04-19T04:54:05;39.40;;;27.10;;
23072;SDS011;67971;51.046;3.732;2023-04-19T04:56:30;40.50;;;27.23;;
23072;SDS011;67971;51.046;3.732;2023-04-19T04:58:56;40.13;;;28.27;;
23072;SDS011;67971;51.046;3.732;2023-04-19T05:01:22;37.17;;;26.43;;
23072;SDS011;67971;51.046;3.732;2023-04-19T05:03:48;45.77;;;28.17;;
23072;SDS011;67971;51.046;3.732;2023-04-19T05:06:15;43.20;;;27.97;;
23072;SDS011;67971;51.046;3.732;2023-04-19T05:08:40;33.37;;;26.07;;
23072;SDS011;67971;51.046;3.732;2023-04-19T05:11:06;39.17;;;28.33;;
23072;SDS011;67971;51.046;3.732;2023-04-19T05:13:32;41.17;;;28.23;;
23072;SDS011;67971;51.046;3.732;2023-04-19T05:15:58;36.47;;;26.67;;
23072;SDS011;67971;51.046;3.732;2023-04-19T05:18:24;41.80;;;28.00;;
23072;SDS011;67971;51.046;3.732;2023-04-19T05:20:49;34.57;;;26.30;;
23072;SDS011;67971;51.046;3.732;2023-04-19T05:23:15;37.33;;;27.33;;
23072;SDS011;67971;51.046;3.732;2023-04-19T05:25:41;36.63;;;26.17;;
23072;SDS011;67971;51.046;3.732;2023-04-19T05:28:06;36.93;;;26.53;;
23072;SDS011;67971;51.046;3.732;2023-04-19T05:30:32;37.77;;;27.03;;
23072;SDS011;67971;51.046;3.732;2023-04-19T05:32:58;36.17;;;25.63;;
23072;SDS011;67971;51.046;3.732;2023-04-19T05:35:24;36.30;;;25.43;;
23072;SDS011;67971;51.046;3.732;2023-04-19T05:37:50;33.40;;;25.27;;
23072;SDS011;67971;51.046;3.732;2023-04-19T05:40:15;33.97;;;24.27;;
23072;SDS011;67971;51.046;3.732;2023-04-19T05:42:41;36.80;;;25.47;;
23072;SDS011;67971;51.046;3.732;2023-04-19T05:45:07;38.17;;;26.53;;
23072;SDS011;67971;51.046;3.732;2023-04-19T05:47:33;34.77;;;24.83;;
23072;SDS011;67971;51.046;3.732;2023-04-19T05:49:59;34.30;;;26.17;;
23072;SDS011;67971;51.046;3.732;2023-04-19T05:52:25;33.00;;;24.00;;
23072;SDS011;67971;51.046;3.732;2023-04-19T05:54:50;31.70;;;24.47;;
23072;SDS011;67971;51.046;3.732;2023-04-19T05:57:16;37.53;;;24.57;;
23072;SDS011;67971;51.046;3.732;2023-04-19T05:59:42;34.70;;;25.03;;
23072;SDS011;67971;51.046;3.732;2023-04-19T06:02:08;37.63;;;24.67;;
23072;SDS011;67971;51.046;3.732;2023-04-19T06:04:34;35.13;;;25.13;;
23072;SDS011;67971;51.046;3.732;2023-04-19T06:07:00;30.97;;;24.90;;
23072;SDS011;67971;51.046;3.732;2023-04-19T06:09:26;36.07;;;25.70;;
23072;SDS011;67971;51.046;3.732;2023-04-19T06:11:51;35.10;;;24.67;;
23072;SDS011;67971;51.046;3.732;2023-04-19T06:14:18;36.43;;;25.60;;
23072;SDS011;67971;51.046;3.732;2023-04-19T06:16:44;32.53;;;24.80;;
23072;SDS011;67971;51.046;3.732;2023-04-19T06:19:10;35.57;;;24.00;;
23072;SDS011;67971;51.046;3.732;2023-04-19T06:21:36;30.27;;;24.00;;
23072;SDS011;67971;51.046;3.732;2023-04-19T06:24:02;35.83;;;24.40;;
23072;SDS011;67971;51.046;3.732;2023-04-19T06:26:27;29.87;;;23.10;;
23072;SDS011;67971;51.046;3.732;2023-04-19T06:28:54;29.37;;;22.33;;
23072;SDS011;67971;51.046;3.732;2023-04-19T06:31:20;27.97;;;21.07;;
23072;SDS011;67971;51.046;3.732;2023-04-19T06:33:46;25.00;;;20.63;;
23072;SDS011;67971;51.046;3.732;2023-04-19T06:36:11;33.43;;;22.73;;
23072;SDS011;67971;51.046;3.732;2023-04-19T06:38:37;29.40;;;22.07;;
23072;SDS011;67971;51.046;3.732;2023-04-19T06:41:04;32.17;;;21.70;;
23072;SDS011;67971;51.046;3.732;2023-04-19T06:43:30;28.73;;;22.33;;
23072;SDS011;67971;51.046;3.732;2023-04-19T06:45:57;31.50;;;21.20;;
23072;SDS011;67971;51.046;3.732;2023-04-19T06:48:23;29.13;;;23.07;;
23072;SDS011;67971;51.046;3.732;2023-04-19T06:50:48;33.03;;;22.17;;
23072;SDS011;67971;51.046;3.732;2023-04-19T06:53:14;30.40;;;21.07;;
23072;SDS011;67971;51.046;3.732;2023-04-19T06:55:40;27.50;;;19.77;;
23072;SDS011;67971;51.046;3.732;2023-04-19T06:58:05;32.03;;;20.83;;
23072;SDS011;67971;51.046;3.732;2023-04-19T07:00:35;31.00;;;20.60;;
23072;SDS011;67971;51.046;3.732;2023-04-19T07:03:01;28.70;;;21.03;;
23072;SDS011;67971;51.046;3.732;2023-04-19T07:05:27;34.07;;;19.60;;
23072;SDS011;67971;51.046;3.732;2023-04-19T07:07:54;25.60;;;18.60;;
23072;SDS011;67971;51.046;3.732;2023-04-19T07:10:19;30.03;;;20.00;;
23072;SDS011;67971;51.046;3.732;2023-04-19T07:12:45;23.37;;;18.53;;
23072;SDS011;67971;51.046;3.732;2023-04-19T07:15:11;26.97;;;19.23;;
23072;SDS011;67971;51.046;3.732;2023-04-19T07:17:36;28.57;;;18.93;;
23072;SDS011;67971;51.046;3.732;2023-04-19T07:20:03;29.70;;;17.90;;
23072;SDS011;67971;51.046;3.732;2023-04-19T07:22:30;22.40;;;16.50;;
23072;SDS011;67971;51.046;3.732;2023-04-19T07:24:57;24.10;;;16.93;;
23072;SDS011;67971;51.046;3.732;2023-04-19T07:27:23;21.47;;;16.73;;
23072;SDS011;67971;51.046;3.732;2023-04-19T07:29:48;21.43;;;16.43;;
23072;SDS011;67971;51.046;3.732;2023-04-19T07:32:15;19.33;;;16.00;;
23072;SDS011;67971;51.046;3.732;2023-04-19T07:34:40;19.10;;;15.02;;
23072;SDS011;67971;51.046;3.732;2023-04-19T07:37:07;18.67;;;15.82;;
23072;SDS011;67971;51.046;3.732;2023-04-19T07:39:33;16.13;;;14.00;;
23072;SDS011;67971;51.046;3.732;2023-04-19T07:41:58;22.05;;;14.55;;
23072;SDS011;67971;51.046;3.732;2023-04-19T07:44:25;20.70;;;14.57;;
23072;SDS011;67971;51.046;3.732;2023-04-19T07:46:51;21.40;;;14.32;;
23072;SDS011;67971;51.046;3.732;2023-04-19T07:49:17;16.60;;;13.45;;
23072;SDS011;67971;51.046;3.732;2023-04-19T07:51:43;15.32;;;12.77;;
23072;SDS011;67971;51.046;3.732;2023-04-19T07:54:09;17.25;;;13.43;;
23072;SDS011;67971;51.046;3.732;2023-04-19T07:56:35;20.65;;;13.25;;
23072;SDS011;67971;51.046;3.732;2023-04-19T07:59:01;16.02;;;13.43;;
23072;SDS011;67971;51.046;3.732;2023-04-19T08:01:28;18.83;;;14.63;;
23072;SDS011;67971;51.046;3.732;2023-04-19T08:03:54;18.90;;;13.55;;
23072;SDS011;67971;51.046;3.732;2023-04-19T08:06:20;16.35;;;14.23;;
23072;SDS011;67971;51.046;3.732;2023-04-19T08:08:46;18.48;;;14.40;;
23072;SDS011;67971;51.046;3.732;2023-04-19T08:11:12;18.27;;;13.38;;
23072;SDS011;67971;51.046;3.732;2023-04-19T08:13:37;18.00;;;13.68;;
23072;SDS011;67971;51.046;3.732;2023-04-19T08:16:03;15.73;;;13.10;;
23072;SDS011;67971;51.046;3.732;2023-04-19T08:18:29;16.58;;;13.50;;
23072;SDS011;67971;51.046;3.732;2023-04-19T08:20:55;16.15;;;12.95;;
23072;SDS011;67971;51.046;3.732;2023-04-19T08:23:22;13.68;;;12.25;;
23072;SDS011;67971;51.046;3.732;2023-04-19T08:25:48;15.98;;;11.90;;
23072;SDS011;67971;51.046;3.732;2023-04-19T08:28:13;15.98;;;12.25;;
23072;SDS011;67971;51.046;3.732;2023-04-19T08:30:39;15.60;;;11.95;;
23072;SDS011;67971;51.046;3.732;2023-04-19T08:33:05;15.18;;;12.35;;
23072;SDS011;67971;51.046;3.732;2023-04-19T08:35:31;20.65;;;12.65;;
23072;SDS011;67971;51.046;3.732;2023-04-19T08:37:59;16.33;;;11.63;;
23072;SDS011;67971;51.046;3.732;2023-04-19T08:40:25;15.05;;;12.70;;
23072;SDS011;67971;51.046;3.732;2023-04-19T08:42:50;17.52;;;12.40;;
23072;SDS011;67971;51.046;3.732;2023-04-19T08:45:16;17.85;;;12.73;;
23072;SDS011;67971;51.046;3.732;2023-04-19T08:47:45;15.48;;;12.90;;
23072;SDS011;67971;51.046;3.732;2023-04-19T08:50:11;13.15;;;10.85;;
23072;SDS011;67971;51.046;3.732;2023-04-19T08:52:37;14.38;;;12.07;;
23072;SDS011;67971;51.046;3.732;2023-04-19T08:55:04;14.38;;;11.82;;
23072;SDS011;67971;51.046;3.732;2023-04-19T08:57:31;18.83;;;11.60;;
23072;SDS011;67971;51.046;3.732;2023-04-19T08:59:58;12.32;;;11.02;;
23072;SDS011;67971;51.046;3.732;2023-04-19T09:02:25;13.98;;;11.50;;
23072;SDS011;67971;51.046;3.732;2023-04-19T09:04:51;13.07;;;10.68;;
23072;SDS011;67971;51.046;3.732;2023-04-19T09:07:23;12.32;;;10.75;;
23072;SDS011;67971;51.046;3.732;2023-04-19T09:10:04;14.50;;;10.80;;
23072;SDS011;67971;51.046;3.732;2023-04-19T09:12:31;15.43;;;11.10;;
23072;SDS011;67971;51.046;3.732;2023-04-19T09:15:01;14.45;;;9.90;;
23072;SDS011;67971;51.046;3.732;2023-04-19T09:17:32;16.02;;;9.95;;
23072;SDS011;67971;51.046;3.732;2023-04-19T09:19:58;13.15;;;10.50;;
23072;SDS011;67971;51.046;3.732;2023-04-19T09:22:24;14.32;;;9.65;;
23072;SDS011;67971;51.046;3.732;2023-04-19T09:24:50;11.52;;;10.35;;
23072;SDS011;67971;51.046;3.732;2023-04-19T09:29:56;17.17;;;10.27;;
23072;SDS011;67971;51.046;3.732;2023-04-19T09:32:23;13.80;;;9.35;;
23072;SDS011;67971;51.046;3.732;2023-04-19T09:34:56;11.55;;;10.07;;
23072;SDS011;67971;51.046;3.732;2023-04-19T09:37:23;12.95;;;9.13;;
23072;SDS011;67971;51.046;3.732;2023-04-19T09:39:50;13.55;;;8.65;;
23072;SDS011;67971;51.046;3.732;2023-04-19T09:42:17;9.82;;;8.57;;
23072;SDS011;67971;51.046;3.732;2023-04-19T09:44:57;9.48;;;8.52;;
23072;SDS011;67971;51.046;3.732;2023-04-19T09:47:23;11.45;;;8.85;;
23072;SDS011;67971;51.046;3.732;2023-04-19T09:50:03;10.45;;;7.93;;
23072;SDS011;67971;51.046;3.732;2023-04-19T09:52:31;9.00;;;8.15;;
23072;SDS011;67971;51.046;3.732;2023-04-19T09:54:59;10.80;;;8.13;;
23072;SDS011;67971;51.046;3.732;2023-04-19T09:57:26;11.05;;;8.32;;
23072;SDS011;67971;51.046;3.732;2023-04-19T09:59:52;9.07;;;7.85;;
23072;SDS011;67971;51.046;3.732;2023-04-19T10:02:17;10.43;;;8.40;;
23072;SDS011;67971;51.046;3.732;2023-04-19T10:04:44;9.75;;;8.10;;
23072;SDS011;67971;51.046;3.732;2023-04-19T10:07:10;9.35;;;8.35;;
23072;SDS011;67971;51.046;3.732;2023-04-19T10:09:36;9.13;;;8.15;;
23072;SDS011;67971;51.046;3.732;2023-04-19T10:12:03;16.35;;;9.07;;
23072;SDS011;67971;51.046;3.732;2023-04-19T10:14:31;9.90;;;8.50;;
23072;SDS011;67971;51.046;3.732;2023-04-19T10:17:00;12.25;;;8.18;;
23072;SDS011;67971;51.046;3.732;2023-04-19T10:19:26;10.68;;;8.07;;
23072;SDS011;67971;51.046;3.732;2023-04-19T10:21:53;11.50;;;7.88;;
23072;SDS011;67971;51.046;3.732;2023-04-19T10:24:20;11.95;;;8.15;;
23072;SDS011;67971;51.046;3.732;2023-04-19T10:32:19;10.05;;;8.48;;
23072;SDS011;67971;51.046;3.732;2023-04-19T10:34:45;11.40;;;8.20;;
23072;SDS011;67971;51.046;3.732;2023-04-19T10:37:14;11.07;;;8.05;;
23072;SDS011;67971;51.046;3.732;2023-04-19T10:42:08;8.90;;;8.00;;
23072;SDS011;67971;51.046;3.732;2023-04-19T10:44:33;9.38;;;8.32;;
23072;SDS011;67971;51.046;3.732;2023-04-19T10:46:59;10.50;;;9.13;;
23072;SDS011;67971;51.046;3.732;2023-04-19T10:49:26;12.50;;;9.13;;
23072;SDS011;67971;51.046;3.732;2023-04-19T10:51:52;14.00;;;8.85;;
23072;SDS011;67971;51.046;3.732;2023-04-19T10:54:32;8.68;;;7.40;;
23072;SDS011;67971;51.046;3.732;2023-04-19T10:59:30;10.02;;;7.90;;
23072;SDS011;67971;51.046;3.732;2023-04-19T11:01:57;10.60;;;7.95;;
23072;SDS011;67971;51.046;3.732;2023-04-19T11:07:03;10.43;;;8.50;;
23072;SDS011;67971;51.046;3.732;2023-04-19T11:09:34;11.75;;;9.25;;
23072;SDS011;67971;51.046;3.732;2023-04-19T11:12:21;12.15;;;8.23;;
23072;SDS011;67971;51.046;3.732;2023-04-19T11:14:48;9.52;;;8.52;;
23072;SDS011;67971;51.046;3.732;2023-04-19T11:17:30;12.73;;;8.48;;
23072;SDS011;67971;51.046;3.732;2023-04-19T11:19:57;11.25;;;8.95;;
23072;SDS011;67971;51.046;3.732;2023-04-19T11:22:30;11.02;;;8.60;;
23072;SDS011;67971;51.046;3.732;2023-04-19T11:25:10;11.35;;;8.88;;
23072;SDS011;67971;51.046;3.732;2023-04-19T11:27:39;12.75;;;9.65;;
23072;SDS011;67971;51.046;3.732;2023-04-19T11:30:08;10.43;;;8.65;;
23072;SDS011;67971;51.046;3.732;2023-04-19T11:32:46;12.05;;;8.35;;
23072;SDS011;67971;51.046;3.732;2023-04-19T11:35:23;14.13;;;8.93;;
23072;SDS011;67971;51.046;3.732;2023-04-19T11:37:52;12.63;;;9.18;;
23072;SDS011;67971;51.046;3.732;2023-04-19T11:40:19;11.57;;;9.35;;
23072;SDS011;67971;51.046;3.732;2023-04-19T11:42:48;12.73;;;9.82;;
23072;SDS011;67971;51.046;3.732;2023-04-19T11:47:54;12.18;;;9.63;;
23072;SDS011;67971;51.046;3.732;2023-04-19T11:50:34;13.20;;;10.07;;
23072;SDS011;67971;51.046;3.732;2023-04-19T11:53:14;15.35;;;10.00;;
23072;SDS011;67971;51.046;3.732;2023-04-19T11:55:41;13.73;;;10.32;;
23072;SDS011;67971;51.046;3.732;2023-04-19T12:00:50;14.80;;;10.00;;
23072;SDS011;67971;51.046;3.732;2023-04-19T12:03:19;12.45;;;9.90;;
23072;SDS011;67971;51.046;3.732;2023-04-19T12:05:52;11.80;;;9.63;;
23072;SDS011;67971;51.046;3.732;2023-04-19T12:08:30;14.80;;;10.13;;
23072;SDS011;67971;51.046;3.732;2023-04-19T12:11:03;14.00;;;10.82;;
23072;SDS011;67971;51.046;3.732;2023-04-19T12:13:31;13.65;;;10.65;;
23072;SDS011;67971;51.046;3.732;2023-04-19T12:15:59;11.45;;;9.57;;
23072;SDS011;67971;51.046;3.732;2023-04-19T12:18:25;13.55;;;8.85;;
23072;SDS011;67971;51.046;3.732;2023-04-19T12:20:51;19.33;;;8.82;;
23072;SDS011;67971;51.046;3.732;2023-04-19T12:23:20;11.85;;;8.10;;
23072;SDS011;67971;51.046;3.732;2023-04-19T12:25:46;12.95;;;8.43;;
23072;SDS011;67971;51.046;3.732;2023-04-19T12:28:13;10.30;;;8.23;;
23072;SDS011;67971;51.046;3.732;2023-04-19T12:30:40;14.25;;;8.65;;
23072;SDS011;67971;51.046;3.732;2023-04-19T12:33:06;13.23;;;8.07;;
23072;SDS011;67971;51.046;3.732;2023-04-19T12:35:33;9.27;;;7.53;;
23072;SDS011;67971;51.046;3.732;2023-04-19T12:37:59;8.70;;;6.80;;
23072;SDS011;67971;51.046;3.732;2023-04-19T12:40:26;10.05;;;7.90;;
23072;SDS011;67971;51.046;3.732;2023-04-19T12:42:53;10.18;;;7.20;;
23072;SDS011;67971;51.046;3.732;2023-04-19T12:45:19;11.02;;;7.38;;
23072;SDS011;67971;51.046;3.732;2023-04-19T12:47:45;11.75;;;7.68;;
23072;SDS011;67971;51.046;3.732;2023-04-19T12:50:12;9.65;;;6.65;;
23072;SDS011;67971;51.046;3.732;2023-04-19T12:52:40;13.13;;;7.30;;
23072;SDS011;67971;51.046;3.732;2023-04-19T12:55:07;13.18;;;6.90;;
23072;SDS011;67971;51.046;3.732;2023-04-19T12:57:33;15.10;;;7.57;;
23072;SDS011;67971;51.046;3.732;2023-04-19T12:59:58;8.75;;;6.75;;
23072;SDS011;67971;51.046;3.732;2023-04-19T13:02:24;14.70;;;6.18;;
23072;SDS011;67971;51.046;3.732;2023-04-19T13:04:49;15.27;;;6.70;;
23072;SDS011;67971;51.046;3.732;2023-04-19T13:07:15;7.60;;;6.63;;
23072;SDS011;67971;51.046;3.732;2023-04-19T13:09:41;12.30;;;7.35;;
23072;SDS011;67971;51.046;3.732;2023-04-19T13:12:07;15.35;;;6.78;;
23072;SDS011;67971;51.046;3.732;2023-04-19T13:14:32;14.02;;;6.78;;
23072;SDS011;67971;51.046;3.732;2023-04-19T13:16:58;6.95;;;5.68;;
23072;SDS011;67971;51.046;3.732;2023-04-19T13:19:24;14.70;;;5.68;;
23072;SDS011;67971;51.046;3.732;2023-04-19T13:21:50;12.60;;;5.65;;
23072;SDS011;67971;51.046;3.732;2023-04-19T13:24:16;11.60;;;5.80;;
23072;SDS011;67971;51.046;3.732;2023-04-19T13:26:42;14.02;;;5.82;;
23072;SDS011;67971;51.046;3.732;2023-04-19T13:29:10;9.52;;;5.40;;
23072;SDS011;67971;51.046;3.732;2023-04-19T13:31:36;8.20;;;5.15;;
23072;SDS011;67971;51.046;3.732;2023-04-19T13:34:02;8.05;;;6.13;;
23072;SDS011;67971;51.046;3.732;2023-04-19T13:36:27;9.98;;;5.47;;
23072;SDS011;67971;51.046;3.732;2023-04-19T13:38:53;9.40;;;5.65;;
23072;SDS011;67971;51.046;3.732;2023-04-19T13:41:19;9.60;;;4.80;;
23072;SDS011;67971;51.046;3.732;2023-04-19T13:43:45;8.10;;;4.50;;
23072;SDS011;67971;51.046;3.732;2023-04-19T13:46:12;5.75;;;4.72;;
23072;SDS011;67971;51.046;3.732;2023-04-19T13:48:38;6.35;;;4.53;;
23072;SDS011;67971;51.046;3.732;2023-04-19T13:51:03;10.13;;;5.28;;
23072;SDS011;67971;51.046;3.732;2023-04-19T13:53:30;9.32;;;5.15;;
23072;SDS011;67971;51.046;3.732;2023-04-19T13:55:55;6.68;;;4.47;;
23072;SDS011;67971;51.046;3.732;2023-04-19T13:58:21;15.52;;;4.95;;
23072;SDS011;67971;51.046;3.732;2023-04-19T14:00:48;12.95;;;4.30;;
23072;SDS011;67971;51.046;3.732;2023-04-19T14:03:15;8.30;;;4.10;;
23072;SDS011;67971;51.046;3.732;2023-04-19T14:05:41;13.02;;;4.60;;
23072;SDS011;67971;51.046;3.732;2023-04-19T14:08:07;9.43;;;4.53;;
23072;SDS011;67971;51.046;3.732;2023-04-19T14:10:33;5.57;;;4.10;;
23072;SDS011;67971;51.046;3.732;2023-04-19T14:12:59;7.63;;;3.83;;
23072;SDS011;67971;51.046;3.732;2023-04-19T14:15:25;5.88;;;3.78;;
23072;SDS011;67971;51.046;3.732;2023-04-19T14:17:50;13.55;;;3.95;;
23072;SDS011;67971;51.046;3.732;2023-04-19T14:20:16;10.43;;;3.72;;
23072;SDS011;67971;51.046;3.732;2023-04-19T14:22:43;8.95;;;4.28;;
23072;SDS011;67971;51.046;3.732;2023-04-19T14:25:11;6.13;;;3.78;;
23072;SDS011;67971;51.046;3.732;2023-04-19T14:27:39;4.25;;;3.40;;
23072;SDS011;67971;51.046;3.732;2023-04-19T14:30:05;7.55;;;3.97;;
23072;SDS011;67971;51.046;3.732;2023-04-19T14:32:31;5.68;;;3.50;;
23072;SDS011;67971;51.046;3.732;2023-04-19T14:34:58;6.35;;;3.42;;
23072;SDS011;67971;51.046;3.732;2023-04-19T14:37:23;8.75;;;3.65;;
23072;SDS011;67971;51.046;3.732;2023-04-19T14:39:49;6.60;;;3.55;;
23072;SDS011;67971;51.046;3.732;2023-04-19T14:42:15;5.82;;;3.25;;
23072;SDS011;67971;51.046;3.732;2023-04-19T14:44:40;5.60;;;3.10;;
23072;SDS011;67971;51.046;3.732;2023-04-19T14:47:06;5.25;;;2.80;;